createdAt,value
2023-02-27T00:00:47.251Z,100384.50
2023-02-27T00:03:13.805Z,100387.53
2023-02-27T00:05:41.900Z,100389.63
2023-02-27T00:08:08.945Z,100397.66
2023-02-27T00:10:35.758Z,100404.75
2023-02-27T00:13:02.329Z,100409.19
2023-02-27T00:15:31.812Z,100403.88
2023-02-27T00:17:59.551Z,100408.19
2023-02-27T00:20:26.767Z,100411.84
2023-02-27T00:22:53.346Z,100413.72
2023-02-27T00:25:19.951Z,100418.38
2023-02-27T00:27:46.561Z,100424.50
2023-02-27T00:30:15.590Z,100420.31
2023-02-27T00:32:42.623Z,100419.38
2023-02-27T00:35:11.006Z,100424.91
2023-02-27T00:37:38.597Z,100427.69
2023-02-27T00:40:06.498Z,100426.75
2023-02-27T00:42:33.477Z,100431.34
2023-02-27T00:45:00.107Z,100440.28
2023-02-27T00:47:26.714Z,100439.44
2023-02-27T00:49:53.358Z,100438.69
2023-02-27T00:52:20.111Z,100438.69
2023-02-27T00:54:46.795Z,100445.09
2023-02-27T00:57:13.440Z,100443.44
2023-02-27T00:59:40.003Z,100447.75
2023-02-27T01:02:07.892Z,100450.44
2023-02-27T01:04:34.526Z,100454.09
2023-02-27T01:07:01.102Z,100449.81
2023-02-27T01:09:27.677Z,100462.25
2023-02-27T01:11:54.298Z,100457.03
2023-02-27T01:14:20.952Z,100458.91
2023-02-27T01:16:47.520Z,100465.84
2023-02-27T01:19:14.090Z,100458.75
2023-02-27T01:21:42.162Z,100459.69
2023-02-27T01:24:09.808Z,100456.88
2023-02-27T01:26:36.467Z,100452.50
2023-02-27T01:29:04.659Z,100456.81
2023-02-27T01:31:32.604Z,100452.44
2023-02-27T01:33:59.225Z,100452.38
2023-02-27T01:36:25.840Z,100448.88
2023-02-27T01:38:52.424Z,100455.97
2023-02-27T01:41:19.000Z,100453.38
2023-02-27T01:44:02.300Z,100449.84
2023-02-27T01:46:30.597Z,100458.69
2023-02-27T01:49:12.908Z,100458.63
2023-02-27T01:52:01.982Z,100455.75
2023-02-27T01:54:31.159Z,100462.91
2023-02-27T01:56:57.971Z,100459.34
2023-02-27T01:59:24.804Z,100464.41
2023-02-27T02:01:51.900Z,100467.94
2023-02-27T02:04:27.676Z,100472.28
2023-02-27T02:07:02.030Z,100481.88
2023-02-27T02:09:29.868Z,100479.25
2023-02-27T02:11:59.128Z,100482.81
2023-02-27T02:14:27.682Z,100481.94
2023-02-27T02:17:00.326Z,100488.03
2023-02-27T02:20:08.116Z,100495.84
2023-02-27T02:22:56.083Z,100498.34
2023-02-27T02:25:34.790Z,100495.69
2023-02-27T02:28:04.149Z,100509.69
2023-02-27T02:31:18.737Z,100508.81
2023-02-27T02:34:19.284Z,100501.81
2023-02-27T02:36:45.785Z,100499.94
2023-02-27T02:39:40.755Z,100502.44
2023-02-27T02:42:20.968Z,100509.59
2023-02-27T02:45:09.515Z,100508.59
2023-02-27T02:48:01.136Z,100507.75
2023-02-27T02:50:48.308Z,100505.09
2023-02-27T02:53:36.967Z,100505.09
2023-02-27T02:56:17.396Z,100516.59
2023-02-27T02:58:52.333Z,100521.00
2023-02-27T03:01:27.317Z,100520.06
2023-02-27T03:04:03.754Z,100512.06
2023-02-27T03:06:37.643Z,100516.41
2023-02-27T03:09:12.102Z,100523.50
2023-02-27T03:11:44.279Z,100515.47
2023-02-27T03:14:35.282Z,100527.03
2023-02-27T03:17:18.184Z,100527.78
2023-02-27T03:20:13.000Z,100536.63
2023-02-27T03:22:42.809Z,100536.63
2023-02-27T03:25:14.322Z,100539.28
2023-02-27T03:27:46.356Z,100540.91
2023-02-27T03:30:20.033Z,100546.13
2023-02-27T03:33:05.177Z,100552.31
2023-02-27T03:35:50.233Z,100547.78
2023-02-27T03:39:01.960Z,100548.66
2023-02-27T03:42:06.508Z,100561.63
2023-02-27T03:44:55.968Z,100558.09
2023-02-27T03:47:22.681Z,100566.13
2023-02-27T03:49:52.036Z,100566.91
2023-02-27T03:52:22.094Z,100558.97
2023-02-27T03:55:15.076Z,100566.91
2023-02-27T03:57:42.642Z,100565.97
2023-02-27T04:00:13.815Z,100562.50
2023-02-27T04:02:41.804Z,100570.34
2023-02-27T04:05:08.626Z,100568.69
2023-02-27T04:07:52.030Z,100574.88
2023-02-27T04:10:43.008Z,100574.00
2023-02-27T04:13:37.573Z,100580.19
2023-02-27T04:16:31.273Z,100573.88
2023-02-27T04:19:28.125Z,100578.31
2023-02-27T04:22:28.246Z,100576.53
2023-02-27T04:25:15.833Z,100576.59
2023-02-27T04:27:45.248Z,100580.03
2023-02-27T04:30:16.416Z,100590.78
2023-02-27T04:32:58.087Z,100585.47
2023-02-27T04:35:51.058Z,100596.84
2023-02-27T04:38:29.019Z,100588.91
2023-02-27T04:41:07.142Z,100602.25
2023-02-27T04:43:37.377Z,100594.31
2023-02-27T04:46:06.987Z,100590.00
2023-02-27T04:48:43.686Z,100602.38
2023-02-27T04:51:18.594Z,100602.38
2023-02-27T04:53:54.352Z,100608.47
2023-02-27T04:56:27.799Z,100614.63
2023-02-27T04:59:00.236Z,100603.25
2023-02-27T05:01:41.594Z,100602.44
2023-02-27T05:04:14.198Z,100602.53
2023-02-27T05:06:43.838Z,100614.13
2023-02-27T05:09:35.370Z,100608.88
2023-02-27T05:12:09.718Z,100618.69
2023-02-27T05:14:39.774Z,100618.78
2023-02-27T05:17:09.327Z,100633.75
2023-02-27T05:19:40.937Z,100631.03
2023-02-27T05:22:33.489Z,100637.13
2023-02-27T05:25:12.248Z,100633.75
2023-02-27T05:27:51.209Z,100641.69
2023-02-27T05:30:27.201Z,100638.09
2023-02-27T05:33:05.543Z,100648.66
2023-02-27T05:35:38.206Z,100649.44
2023-02-27T05:38:12.876Z,100641.47
2023-02-27T05:40:43.711Z,100651.25
2023-02-27T05:43:21.220Z,100648.50
2023-02-27T05:45:53.344Z,100654.59
2023-02-27T05:48:30.373Z,100659.81
2023-02-27T05:50:59.028Z,100659.91
2023-02-27T05:53:30.537Z,100655.44
2023-02-27T05:56:01.811Z,100671.22
2023-02-27T05:58:51.263Z,100680.91
2023-02-27T06:01:17.894Z,100677.38
2023-02-27T06:03:44.624Z,100682.78
2023-02-27T06:06:18.597Z,100691.44
2023-02-27T06:08:45.742Z,100691.56
2023-02-27T06:11:13.306Z,100693.28
2023-02-27T06:13:41.954Z,100696.75
2023-02-27T06:16:12.719Z,100703.63
2023-02-27T06:18:39.378Z,100710.66
2023-02-27T06:21:06.568Z,100714.16
2023-02-27T06:23:33.328Z,100725.59
2023-02-27T06:26:00.090Z,100721.91
2023-02-27T06:28:26.664Z,100738.56
2023-02-27T06:30:57.677Z,100733.09
2023-02-27T06:33:26.038Z,100741.72
2023-02-27T06:35:53.075Z,100750.56
2023-02-27T06:38:19.728Z,100753.94
2023-02-27T06:40:46.312Z,100759.97
2023-02-27T06:43:12.900Z,100758.81
2023-02-27T06:45:39.494Z,100762.13
2023-02-27T06:48:06.332Z,100779.56
2023-02-27T06:50:33.056Z,100777.44
2023-02-27T06:52:59.596Z,100778.09
2023-02-27T06:55:26.165Z,100786.72
2023-02-27T06:57:52.760Z,100777.59
2023-02-27T07:00:19.751Z,100787.16
2023-02-27T07:02:46.369Z,100789.66
2023-02-27T07:05:12.982Z,100790.38
2023-02-27T07:07:40.548Z,100798.19
2023-02-27T07:10:11.715Z,100799.78
2023-02-27T07:12:39.903Z,100794.25
2023-02-27T07:15:07.751Z,100802.88
2023-02-27T07:17:34.356Z,100799.16
2023-02-27T07:20:02.053Z,100805.97
2023-02-27T07:22:28.698Z,100806.78
2023-02-27T07:24:55.280Z,100812.63
2023-02-27T07:27:21.884Z,100813.28
2023-02-27T07:29:48.455Z,100813.88
2023-02-27T07:32:15.332Z,100811.84
2023-02-27T07:34:42.016Z,100815.13
2023-02-27T07:37:08.878Z,100819.25
2023-02-27T07:39:35.552Z,100818.06
2023-02-27T07:42:02.121Z,100814.91
2023-02-27T07:44:28.722Z,100825.00
2023-02-27T07:46:55.379Z,100824.47
2023-02-27T07:49:22.118Z,100831.94
2023-02-27T07:51:48.918Z,100827.84
2023-02-27T07:54:15.633Z,100827.22
2023-02-27T07:56:42.197Z,100822.38
2023-02-27T07:59:08.851Z,100829.88
2023-02-27T08:01:35.482Z,100825.97
2023-02-27T08:04:02.042Z,100837.06
2023-02-27T08:06:28.856Z,100831.44
2023-02-27T08:08:55.870Z,100838.38
2023-02-27T08:11:22.468Z,100841.13
2023-02-27T08:14:05.448Z,100847.31
2023-02-27T08:16:32.542Z,100846.56
2023-02-27T08:19:00.253Z,100851.06
2023-02-27T08:21:27.755Z,100854.44
2023-02-27T08:23:54.683Z,100856.97
2023-02-27T08:26:21.792Z,100861.16
2023-02-27T08:28:48.380Z,100870.09
2023-02-27T08:31:15.104Z,100874.56
2023-02-27T08:33:41.681Z,100878.78
2023-02-27T08:36:08.586Z,100876.84
2023-02-27T08:38:35.202Z,100881.91
2023-02-27T08:41:01.806Z,100881.59
2023-02-27T08:43:28.388Z,100894.66
2023-02-27T08:45:55.033Z,100893.63
2023-02-27T08:48:24.061Z,100896.16
2023-02-27T08:50:51.326Z,100894.94
2023-02-27T08:53:18.055Z,100890.09
2023-02-27T08:55:44.785Z,100886.91
2023-02-27T08:58:11.321Z,100886.41
2023-02-27T09:00:37.932Z,100898.38
2023-02-27T09:03:04.588Z,100888.22
2023-02-27T09:05:35.151Z,100894.44
2023-02-27T09:08:03.256Z,100899.75
2023-02-27T09:10:30.993Z,100901.22
2023-02-27T09:12:57.588Z,100900.88
2023-02-27T09:15:24.378Z,100907.00
2023-02-27T09:17:51.422Z,100912.50
2023-02-27T09:20:18.116Z,100913.53
2023-02-27T09:22:44.834Z,100912.06
2023-02-27T09:25:11.517Z,100910.34
2023-02-27T09:27:38.090Z,100906.66
2023-02-27T09:30:05.468Z,100906.47
2023-02-27T09:32:32.710Z,100915.06
2023-02-27T09:35:00.442Z,100914.06
2023-02-27T09:37:26.988Z,100916.72
2023-02-27T09:39:53.534Z,100909.47
2023-02-27T09:42:26.536Z,100909.13
2023-02-27T09:44:57.709Z,100919.72
2023-02-27T09:47:48.071Z,100916.03
2023-02-27T09:50:20.274Z,100928.06
2023-02-27T09:52:46.916Z,100922.50
2023-02-27T09:55:20.912Z,100926.63
2023-02-27T09:57:56.426Z,100918.53
2023-02-27T10:00:49.313Z,100927.03
2023-02-27T10:03:36.203Z,100925.47
2023-02-27T10:06:14.743Z,100929.28
2023-02-27T10:09:22.390Z,100927.59
2023-02-27T10:12:26.787Z,100932.38
2023-02-27T10:15:05.988Z,100925.09
2023-02-27T10:17:38.878Z,100931.63
2023-02-27T10:20:10.648Z,100922.09
2023-02-27T10:22:43.349Z,100923.16
2023-02-27T10:25:30.266Z,100910.63
2023-02-27T10:28:08.895Z,100914.25
2023-02-27T10:30:35.951Z,100916.63
2023-02-27T10:33:09.019Z,100927.97
2023-02-27T10:35:39.091Z,100916.94
2023-02-27T10:38:29.395Z,100918.44
2023-02-27T10:40:58.197Z,100916.44
2023-02-27T10:43:25.086Z,100908.34
2023-02-27T10:45:52.986Z,100910.31
2023-02-27T10:48:20.616Z,100910.59
2023-02-27T10:50:52.241Z,100911.16
2023-02-27T10:53:23.075Z,100905.56
2023-02-27T10:56:05.273Z,100915.28
2023-02-27T10:58:35.551Z,100918.81
2023-02-27T11:01:04.990Z,100907.41
2023-02-27T11:03:40.954Z,100903.81
2023-02-27T11:06:34.575Z,100905.50
2023-02-27T11:09:13.151Z,100911.28
2023-02-27T11:11:39.870Z,100904.88
2023-02-27T11:14:36.304Z,100906.94
2023-02-27T11:17:03.708Z,100910.06
2023-02-27T11:19:38.935Z,100912.72
2023-02-27T11:22:17.275Z,100921.31
2023-02-27T11:24:44.428Z,100916.09
2023-02-27T11:27:26.490Z,100923.56
2023-02-27T11:30:01.174Z,100924.66
2023-02-27T11:32:36.173Z,100930.75
2023-02-27T11:35:04.592Z,100916.84
2023-02-27T11:37:35.091Z,100932.03
2023-02-27T11:40:12.826Z,100927.38
2023-02-27T11:42:56.646Z,100924.53
2023-02-27T11:46:19.452Z,100922.63
2023-02-27T11:48:30.908Z,100918.34
2023-02-27T11:51:00.234Z,100912.78
2023-02-27T11:53:44.794Z,100912.38
2023-02-27T11:56:17.101Z,100904.78
2023-02-27T11:59:00.896Z,100907.00
2023-02-27T12:01:49.416Z,100904.84
2023-02-27T12:04:42.041Z,100910.00
2023-02-27T12:07:15.225Z,100896.31
2023-02-27T12:09:51.583Z,100903.84
2023-02-27T12:12:28.093Z,100902.69
2023-02-27T12:15:00.805Z,100897.06
2023-02-27T12:17:44.951Z,100894.91
2023-02-27T12:20:42.078Z,100897.06
2023-02-27T12:23:30.326Z,100906.41
2023-02-27T12:26:10.464Z,100915.16
2023-02-27T12:28:36.979Z,100913.91
2023-02-27T12:31:13.447Z,100926.50
2023-02-27T12:34:18.688Z,100923.47
2023-02-27T12:36:45.938Z,100929.38
2023-02-27T12:39:28.670Z,100925.19
2023-02-27T12:42:39.909Z,100916.38
2023-02-27T12:45:15.638Z,100924.41
2023-02-27T12:48:12.672Z,100920.09
2023-02-27T12:50:50.861Z,100927.69
2023-02-27T12:53:50.029Z,100926.84
2023-02-27T12:56:20.680Z,100928.63
2023-02-27T12:59:29.367Z,100926.19
2023-02-27T13:02:44.434Z,100929.78
2023-02-27T13:05:24.334Z,100926.22
2023-02-27T13:07:59.988Z,100938.44
2023-02-27T13:10:44.084Z,100943.69
2023-02-27T13:13:26.228Z,100944.41
2023-02-27T13:16:01.858Z,100952.13
2023-02-27T13:18:38.564Z,100950.63
2023-02-27T13:21:30.089Z,100944.56
2023-02-27T13:24:15.007Z,100950.75
2023-02-27T13:26:53.806Z,100954.03
2023-02-27T13:29:23.426Z,100951.34
2023-02-27T13:32:01.447Z,100949.66
2023-02-27T13:34:40.209Z,100955.03
2023-02-27T13:37:08.827Z,100955.19
2023-02-27T13:39:45.706Z,100955.59
2023-02-27T13:42:27.480Z,100963.16
2023-02-27T13:44:54.142Z,100958.28
2023-02-27T13:47:50.101Z,100963.88
2023-02-27T13:50:21.256Z,100960.66
2023-02-27T13:52:48.412Z,100956.75
2023-02-27T13:55:31.216Z,100960.66
2023-02-27T13:58:00.832Z,100974.72
2023-02-27T14:00:33.041Z,100956.13
2023-02-27T14:03:16.675Z,100949.94
2023-02-27T14:05:46.285Z,100947.28
2023-02-27T14:08:25.012Z,100952.03
2023-02-27T14:11:16.476Z,100948.53
2023-02-27T14:13:45.773Z,100948.53
2023-02-27T14:16:37.418Z,100944.41
2023-02-27T14:19:16.218Z,100950.13
2023-02-27T14:21:55.848Z,100938.56
2023-02-27T14:25:02.126Z,100950.69
2023-02-27T14:27:52.015Z,100946.56
2023-02-27T14:30:41.059Z,100948.94
2023-02-27T14:33:13.698Z,100937.06
2023-02-27T14:35:45.610Z,100946.03
2023-02-27T14:38:17.902Z,100939.91
2023-02-27T14:41:08.130Z,100944.13
2023-02-27T14:43:55.065Z,100945.25
2023-02-27T14:46:39.783Z,100951.41
2023-02-27T14:49:17.984Z,100949.13
2023-02-27T14:51:44.967Z,100960.91
2023-02-27T14:54:21.243Z,100961.16
2023-02-27T14:56:59.576Z,100960.44
2023-02-27T14:59:34.054Z,100959.84
2023-02-27T15:02:04.875Z,100965.78
2023-02-27T15:04:33.141Z,100966.91
2023-02-27T15:07:00.789Z,100966.47
2023-02-27T15:09:35.687Z,100972.31
2023-02-27T15:12:04.645Z,100976.28
2023-02-27T15:14:39.726Z,100972.56
2023-02-27T15:17:38.236Z,100981.34
2023-02-27T15:20:25.231Z,100989.41
2023-02-27T15:22:51.817Z,100995.16
2023-02-27T15:25:32.353Z,100999.63
2023-02-27T15:28:07.436Z,100996.66
2023-02-27T15:30:34.152Z,101010.22
2023-02-27T15:33:02.838Z,101017.34
2023-02-27T15:35:37.902Z,101022.53
2023-02-27T15:38:05.089Z,101017.28
2023-02-27T15:40:34.201Z,101016.69
2023-02-27T15:43:01.723Z,101027.72
2023-02-27T15:45:32.950Z,101033.25
2023-02-27T15:48:00.161Z,101031.88
2023-02-27T15:50:42.971Z,101036.25
2023-02-27T15:53:13.801Z,101052.94
2023-02-27T15:55:44.375Z,101045.47
2023-02-27T15:58:20.301Z,101050.56
2023-02-27T16:00:47.031Z,101057.91
2023-02-27T16:03:22.235Z,101056.00
2023-02-27T16:05:52.530Z,101053.91
2023-02-27T16:08:20.487Z,101064.50
2023-02-27T16:10:48.028Z,101072.97
2023-02-27T16:13:40.063Z,101072.63
2023-02-27T16:16:25.645Z,101073.66
2023-02-27T16:18:57.499Z,101079.00
2023-02-27T16:21:26.668Z,101084.75
2023-02-27T16:23:54.497Z,101089.94
2023-02-27T16:26:32.628Z,101098.34
2023-02-27T16:29:03.769Z,101099.78
2023-02-27T16:31:39.285Z,101111.44
2023-02-27T16:34:42.799Z,101115.63
2023-02-27T16:37:21.132Z,101127.38
2023-02-27T16:39:50.707Z,101126.78
2023-02-27T16:42:17.319Z,101129.97
2023-02-27T16:44:43.958Z,101131.97
2023-02-27T16:47:10.928Z,101138.81
2023-02-27T16:49:39.081Z,101144.81
2023-02-27T16:52:07.329Z,101144.44
2023-02-27T16:54:35.231Z,101142.63
2023-02-27T16:57:01.825Z,101149.69
2023-02-27T16:59:33.610Z,101158.00
2023-02-27T17:02:02.769Z,101159.63
2023-02-27T17:04:30.424Z,101158.41
2023-02-27T17:06:59.226Z,101167.81
2023-02-27T17:09:27.590Z,101171.44
2023-02-27T17:11:55.016Z,101169.94
2023-02-27T17:14:24.955Z,101167.72
2023-02-27T17:16:51.671Z,101174.50
2023-02-27T17:19:21.448Z,101172.19
2023-02-27T17:21:48.651Z,101172.34
2023-02-27T17:24:15.372Z,101180.34
2023-02-27T17:26:42.396Z,101184.69
2023-02-27T17:29:09.833Z,101191.56
2023-02-27T17:31:37.392Z,101199.28
2023-02-27T17:34:05.394Z,101199.28
2023-02-27T17:36:32.278Z,101193.31
2023-02-27T17:39:02.888Z,101189.84
2023-02-27T17:41:31.572Z,101196.44
2023-02-27T17:43:59.149Z,101195.13
2023-02-27T17:46:27.689Z,101206.31
2023-02-27T17:48:56.244Z,101203.97
2023-02-27T17:51:23.193Z,101200.91
2023-02-27T17:53:49.783Z,101205.47
2023-02-27T17:56:16.360Z,101214.84
2023-02-27T17:58:45.914Z,101221.06
2023-02-27T18:01:15.588Z,101220.09
2023-02-27T18:03:44.022Z,101231.38
2023-02-27T18:06:10.682Z,101239.97
2023-02-27T18:08:37.235Z,101241.72
2023-02-27T18:11:04.575Z,101238.47
2023-02-27T18:13:31.172Z,101248.78
2023-02-27T18:15:58.025Z,101240.59
2023-02-27T18:18:24.578Z,101246.75
2023-02-27T18:21:06.648Z,101241.50
2023-02-27T18:23:33.313Z,101244.72
2023-02-27T18:26:00.523Z,101243.31
2023-02-27T18:28:27.200Z,101241.69
2023-02-27T18:30:53.883Z,101255.22
2023-02-27T18:33:20.811Z,101263.41
2023-02-27T18:35:47.477Z,101258.84
2023-02-27T18:38:14.572Z,101264.22
2023-02-27T18:40:42.766Z,101273.16
2023-02-27T18:43:13.902Z,101272.41
2023-02-27T18:45:41.005Z,101275.88
2023-02-27T18:48:08.384Z,101285.69
2023-02-27T18:50:35.024Z,101287.53
2023-02-27T18:53:01.644Z,101297.47
2023-02-27T18:55:28.332Z,101301.28
2023-02-27T18:57:55.175Z,101301.34
2023-02-27T19:00:24.106Z,101307.28
2023-02-27T19:02:50.799Z,101314.56
2023-02-27T19:05:17.510Z,101322.63
2023-02-27T19:07:44.132Z,101326.38
2023-02-27T19:10:11.620Z,101325.53
2023-02-27T19:12:38.185Z,101322.31
2023-02-27T19:15:05.726Z,101337.56
2023-02-27T19:17:33.554Z,101335.91
2023-02-27T19:20:00.522Z,101341.47
2023-02-27T19:22:30.779Z,101351.44
2023-02-27T19:24:57.726Z,101360.41
2023-02-27T19:27:24.538Z,101359.63
2023-02-27T19:29:51.446Z,101354.56
2023-02-27T19:32:18.123Z,101365.16
2023-02-27T19:34:44.872Z,101356.41
2023-02-27T19:37:11.513Z,101362.69
2023-02-27T19:39:38.096Z,101359.19
2023-02-27T19:42:04.732Z,101361.91
2023-02-27T19:44:32.400Z,101356.53
2023-02-27T19:46:59.108Z,101346.97
2023-02-27T19:49:25.743Z,101351.50
2023-02-27T19:51:52.377Z,101367.41
2023-02-27T19:54:18.965Z,101369.25
2023-02-27T19:56:45.623Z,101369.28
2023-02-27T19:59:12.711Z,101372.09
2023-02-27T20:01:40.784Z,101388.16
2023-02-27T20:04:09.103Z,101397.81
2023-02-27T20:06:41.973Z,101400.47
2023-02-27T20:09:11.508Z,101406.69
2023-02-27T20:11:38.202Z,101403.22
2023-02-27T20:14:04.989Z,101414.09
2023-02-27T20:16:35.586Z,101411.38
2023-02-27T20:19:07.048Z,101404.38
2023-02-27T20:21:33.980Z,101416.84
2023-02-27T20:24:01.364Z,101409.75
2023-02-27T20:26:36.609Z,101410.81
2023-02-27T20:29:06.819Z,101415.19
2023-02-27T20:31:36.164Z,101416.97
2023-02-27T20:34:05.939Z,101408.31
2023-02-27T20:36:33.986Z,101427.09
2023-02-27T20:39:00.802Z,101431.66
2023-02-27T20:41:29.618Z,101435.41
2023-02-27T20:43:56.962Z,101433.84
2023-02-27T20:46:27.958Z,101441.97
2023-02-27T20:49:00.394Z,101445.59
2023-02-27T20:51:30.326Z,101434.22
2023-02-27T20:53:59.310Z,101442.41
2023-02-27T20:56:32.090Z,101444.34
2023-02-27T20:59:01.364Z,101440.06
2023-02-27T21:01:28.592Z,101439.22
2023-02-27T21:03:57.678Z,101434.84
2023-02-27T21:06:24.761Z,101441.97
2023-02-27T21:08:55.272Z,101449.03
2023-02-27T21:11:27.194Z,101451.66
2023-02-27T21:13:55.780Z,101455.25
2023-02-27T21:16:24.993Z,101462.44
2023-02-27T21:18:52.868Z,101465.19
2023-02-27T21:24:59.847Z,101471.28
2023-02-27T21:27:26.632Z,101478.34
2023-02-27T21:29:53.280Z,101463.38
2023-02-27T21:32:19.937Z,101462.53
2023-02-27T21:34:46.605Z,101445.00
2023-02-27T21:37:13.175Z,101459.09
2023-02-27T21:39:39.723Z,101464.41
2023-02-27T21:42:07.419Z,101472.28
2023-02-27T21:44:34.190Z,101472.28
2023-02-27T21:47:09.763Z,101470.53
2023-02-27T21:49:37.303Z,101476.75
2023-02-27T21:52:04.185Z,101467.94
2023-02-27T21:54:30.774Z,101472.38
2023-02-27T21:57:01.854Z,101473.28
2023-02-27T21:59:28.987Z,101460.91
2023-02-27T22:01:57.251Z,101453.91
2023-02-27T22:04:24.352Z,101454.84
2023-02-27T22:06:52.381Z,101467.28
2023-02-27T22:09:19.834Z,101461.94
2023-02-27T22:11:46.919Z,101452.19
2023-02-27T22:14:13.551Z,101446.94
2023-02-27T22:16:40.760Z,101449.63
2023-02-27T22:19:09.754Z,101455.03
2023-02-27T22:21:37.236Z,101455.13
2023-02-27T22:24:50.495Z,101453.56
2023-02-27T22:27:17.208Z,101454.38
2023-02-27T22:29:43.789Z,101450.78
2023-02-27T22:32:10.438Z,101443.66
2023-02-27T22:34:37.081Z,101444.50
2023-02-27T22:37:03.632Z,101447.06
2023-02-27T22:39:31.185Z,101457.66
2023-02-27T22:41:57.780Z,101452.38
2023-02-27T22:44:24.412Z,101456.84
2023-02-27T22:46:51.140Z,101461.22
2023-02-27T22:49:20.638Z,101462.94
2023-02-27T22:51:50.735Z,101455.75
2023-02-27T22:54:19.303Z,101462.69
2023-02-27T22:56:45.966Z,101464.44
2023-02-27T22:59:12.568Z,101453.84
2023-02-27T23:01:39.200Z,101459.03
2023-02-27T23:04:08.509Z,101452.81
2023-02-27T23:06:38.880Z,101457.28
2023-02-27T23:09:07.546Z,101462.53
2023-02-27T23:11:34.302Z,101462.47
2023-02-27T23:14:00.928Z,101463.38
2023-02-27T23:16:27.859Z,101462.44
2023-02-27T23:18:56.902Z,101464.13
2023-02-27T23:21:31.922Z,101457.16
2023-02-27T23:23:58.629Z,101461.44
2023-02-27T23:26:28.395Z,101463.19
2023-02-27T23:28:56.695Z,101462.28
2023-02-27T23:31:23.814Z,101472.94
2023-02-27T23:33:50.480Z,101471.09
2023-02-27T23:36:17.661Z,101471.91
2023-02-27T23:38:46.646Z,101472.78
2023-02-27T23:41:17.310Z,101474.44
2023-02-27T23:43:44.671Z,101474.34
2023-02-27T23:46:16.340Z,101466.38
2023-02-27T23:48:43.536Z,101472.47
2023-02-27T23:51:11.236Z,101477.75
2023-02-27T23:53:39.321Z,101482.09
2023-02-27T23:56:24.028Z,101487.34
2023-02-27T23:58:59.397Z,101493.47
